AV9205 / N725AV 7700 Squawk Report (21st of April, 2018)

Aircraft A321 Reg No. N725AV Age 3 years old
Model A321 Jet engines 2 First flight 07-08-14
Registered 15-08-14 Rollout 08-14 Delivered 15-08-14
Construction No. 6219 Line No. N/A Series 231(SL)
ADSHEX A9B633 Airline name Avianca Owner N/A
Airfield based Bogota-Eldorado~Distrito Capital~HK First tracked N/A

Flight history for N725AV

Route Flight No Date Playback
Eldorado Intl (BOG) - Jose Maria Cordova (MDE) AV9334 2018-07-04 04:41:00
Jose Maria Cordova (MDE) - Eldorado Intl (BOG) AV9343 2018-07-04 04:11:00
???? AV9342 2018-07-04 02:09:00
Rafael Nunez (CTG) - Eldorado Intl (BOG) AV9547 2018-07-03 22:05:00
Eldorado Intl (BOG) - Rafael Nunez (CTG) AV8558 2018-07-03 20:45:00
Ernesto Cortissoz (BAQ) - Eldorado Intl (BOG) AV8521 2018-07-03 18:48:00
Eldorado Intl (BOG) - Ernesto Cortissoz (BAQ) AV8520 2018-07-03 15:34:00
Ernesto Cortissoz (BAQ) - Eldorado Intl (BOG) AV9531 2018-07-03 12:59:00
Eldorado Intl (BOG) - Ernesto Cortissoz (BAQ) AV9716 2018-07-03 11:06:00
Rafael Nunez (CTG) - Eldorado Intl (BOG) AV8549 2018-07-03 04:32:00
Eldorado Intl (BOG) - Rafael Nunez (CTG) AV9546 2018-07-03 00:55:00
Jose Maria Cordova (MDE) - Eldorado Intl (BOG) AV8437 2018-07-02 22:26:00
Eldorado Intl (BOG) - Jose Maria Cordova (MDE) AV9316 2018-07-02 22:04:00
Rafael Nunez (CTG) - Eldorado Intl (BOG) AV9759 2018-07-02 18:55:00
Eldorado Intl (BOG) - Rafael Nunez (CTG) AV9758 2018-07-02 16:50:00
???? N/A 2018-07-02 15:25:00
Eldorado Intl (BOG) - Ernesto Cortissoz (BAQ) AV8524 2018-07-02 12:09:00
???? AV9513 2018-07-02 06:09:00
???? AV9512 2018-07-02 04:47:00
Rafael Nunez (CTG) - Eldorado Intl (BOG) AV9753 2018-07-02 02:49:00
Time Lat Lon Altitude Heading Speed Vertical Rate
2018-04-21 20:03:20 GMT 4.696987 -74.144028 0 36 0 0
2018-04-21 20:03:10 GMT 4.696923 -74.144073 0 36 3 0
2018-04-21 20:03:00 GMT 4.696748 -74.144203 0 39 5 0
2018-04-21 20:02:50 GMT 4.696585 -74.144287 0 59 3 0
2018-04-21 20:02:36 GMT 4.696423 -74.144447 0 118 5 0
2018-04-21 20:02:17 GMT 4.696815 -74.144997 0 126 8 0
2018-04-21 20:02:06 GMT 4.697086 -74.145340 0 126 14 0
2018-04-21 20:01:55 GMT 4.697458 -74.145844 0 126 13 0
2018-04-21 20:01:44 GMT 4.697845 -74.146347 0 126 12 0
2018-04-21 20:01:35 GMT 4.698154 -74.146767 0 126 10 0
2018-04-21 20:01:23 GMT 4.698413 -74.147118 0 115 9 0
2018-04-21 20:01:13 GMT 4.698418 -74.147438 0 36 7 0
2018-04-21 20:01:03 GMT 4.698166 -74.147629 0 36 6 0
2018-04-21 20:00:52 GMT 4.697901 -74.147820 0 33 6 0
2018-04-21 20:00:40 GMT 4.697551 -74.148056 0 5 9 0
2018-04-21 20:00:30 GMT 4.697191 -74.147980 0 312 6 0
2018-04-21 19:59:31 GMT 4.696970 -74.147713 0 306 2 0
2018-04-21 19:59:25 GMT 4.696958 -74.147697 0 309 9 0
2018-04-21 19:59:16 GMT 4.696747 -74.147392 0 306 6 0
2018-04-21 19:59:04 GMT 4.696587 -74.147179 0 306 4 0
2018-04-21 19:58:54 GMT 4.696495 -74.147064 0 309 0 0
2018-04-21 19:58:44 GMT 4.696411 -74.146965 0 306 1 0
2018-04-21 19:58:32 GMT 4.696388 -74.146927 0 306 2 0
2018-04-21 19:58:22 GMT 4.696381 -74.146912 0 306 0 0
2018-04-21 19:58:12 GMT 4.696266 -74.146774 0 309 10 0
2018-04-21 19:58:01 GMT 4.695922 -74.146339 0 306 13 0
2018-04-21 19:57:49 GMT 4.695591 -74.145866 0 306 10 0
2018-04-21 19:57:39 GMT 4.695328 -74.145515 0 309 8 0
2018-04-21 19:57:29 GMT 4.695099 -74.145287 0 348 6 0
2018-04-21 19:57:17 GMT 4.694744 -74.145287 0 33 7 0
2018-04-21 19:57:07 GMT 4.694514 -74.145462 0 36 6 0
2018-04-21 19:56:56 GMT 4.694304 -74.145615 0 36 4 0
2018-04-21 19:56:45 GMT 4.693967 -74.145866 0 36 17 0
2018-04-21 19:56:35 GMT 4.693420 -74.146423 0 101 14 0
2018-04-21 19:56:25 GMT 4.693783 -74.147064 0 129 28 0
2018-04-21 19:56:13 GMT 4.694921 -74.148575 0 126 41 0
2018-04-21 19:56:02 GMT 4.696120 -74.150139 0 126 44 0
2018-04-21 19:55:53 GMT 4.697536 -74.152023 0 126 64 0
2018-04-21 19:55:42 GMT 4.699917 -74.155174 0 126 100 0
2018-04-21 19:55:30 GMT 4.703316 -74.159660 0 126 140 0
2018-04-21 19:55:21 GMT 4.707863 -74.165672 8,075 126 165 0
2018-04-21 19:55:12 GMT 4.711552 -74.170547 8,075 127 160 -768
2018-04-21 19:55:09 GMT 4.712483 -74.171730 8,200 127 160 -704
2018-04-21 19:55:01 GMT 4.716888 -74.177544 8,200 127 160 -704
2018-04-21 19:54:58 GMT 4.717790 -74.178787 8,250 126 163 -704
2018-04-21 19:54:53 GMT 4.720816 -74.182816 8,325 127 166 -896
2018-04-21 19:54:48 GMT 4.721933 -74.184280 8,375 127 165 -768
2018-04-21 19:54:38 GMT 4.727280 -74.191277 8,525 127 167 -960
2018-04-21 19:54:34 GMT 4.729894 -74.194748 8,600 126 168 -896
2018-04-21 19:54:27 GMT 4.732361 -74.197983 8,775 126 165 -832
2018-04-21 19:54:22 GMT 4.734970 -74.201424 8,775 126 165 -832
2018-04-21 19:54:16 GMT 4.737388 -74.204597 8,825 126 164 -896
2018-04-21 19:54:04 GMT 4.742706 -74.211670 8,975 127 162 -832
2018-04-21 19:53:55 GMT 4.747258 -74.217667 9,100 126 161 -832
2018-04-21 19:53:42 GMT 4.753682 -74.226143 9,275 126 162 -960
2018-04-21 19:53:33 GMT 4.756668 -74.230103 9,400 127 162 -960
2018-04-21 19:53:22 GMT 4.761689 -74.236656 9,550 127 162 -896
2018-04-21 19:53:12 GMT 4.766391 -74.242905 9,675 127 162 -832
2018-04-21 19:53:01 GMT 4.771558 -74.249634 9,850 126 164 -768
2018-04-21 19:52:49 GMT 4.776306 -74.255989 9,975 127 164 -768
2018-04-21 19:52:40 GMT 4.781427 -74.262749 10,125 127 169 -960
2018-04-21 19:52:29 GMT 4.786967 -74.270042 10,300 126 179 -960
2018-04-21 19:52:18 GMT 4.791901 -74.276627 10,450 127 188 -832
2018-04-21 19:52:12 GMT 4.795858 -74.281830 10,550 125 229 -1792
2018-04-21 19:52:08 GMT 4.797953 -74.284576 10,600 126 203 -640
2018-04-21 19:52:02 GMT 4.802307 -74.290436 10,750 126 212 -960
2018-04-21 19:51:57 GMT 4.803586 -74.292152 10,800 126 215 -1152
2018-04-21 19:51:49 GMT 4.809405 -74.299973 10,975 126 222 -1600
2018-04-21 19:51:45 GMT 4.810638 -74.301605 11,025 126 224 -1664
2018-04-21 19:51:35 GMT 4.817272 -74.310768 11,325 125 230 -1728
2018-04-21 19:51:24 GMT 4.823593 -74.319855 11,800 120 237 -2048
2018-04-21 19:51:19 GMT 4.828584 -74.328331 11,800 120 237 -2048
2018-04-21 19:51:13 GMT 4.829132 -74.329536 11,850 112 237 -1408
2018-04-21 19:51:04 GMT 4.832199 -74.341042 12,000 88 253 -1024
2018-04-21 19:50:59 GMT 4.831191 -74.350121 12,050 63 270 -1536
2018-04-21 19:50:56 GMT 4.830400 -74.352440 12,075 63 270 -1536
2018-04-21 19:50:53 GMT 4.829636 -74.354256 12,100 63 270 -1536
2018-04-21 19:50:42 GMT 4.823650 -74.365273 12,275 60 273 -1088
2018-04-21 19:50:35 GMT 4.817412 -74.376350 12,425 60 277 -576
2018-04-21 19:50:32 GMT 4.816772 -74.377441 12,425 60 278 -576
2018-04-21 19:50:21 GMT 4.809998 -74.389404 12,525 60 283 -448
2018-04-21 19:50:09 GMT 4.800934 -74.405327 12,650 60 291 -128
2018-04-21 19:49:59 GMT 4.796137 -74.413811 12,675 60 294 0
2018-04-21 19:49:56 GMT 4.792227 -74.420723 12,675 60 294 0
2018-04-21 19:49:52 GMT 4.790085 -74.424507 12,675 60 294 0
2018-04-21 19:49:49 GMT 4.788483 -74.427391 12,675 60 295 0
2018-04-21 19:49:44 GMT 4.784317 -74.434792 12,675 60 295 -64
2018-04-21 19:49:37 GMT 4.781616 -74.439545 12,675 60 293 0
2018-04-21 19:49:32 GMT 4.775841 -74.449707 12,675 60 294 0
2018-04-21 19:49:27 GMT 4.774118 -74.452782 12,675 60 294 -64
2018-04-21 19:49:16 GMT 4.766418 -74.466309 12,675 60 294 64
2018-04-21 19:49:04 GMT 4.759408 -74.478638 12,675 60 295 64
2018-04-21 19:48:54 GMT 4.750259 -74.494896 12,675 60 295 64
2018-04-21 19:48:41 GMT 4.742183 -74.509232 12,675 60 295 0
2018-04-21 19:48:29 GMT 4.733245 -74.525238 12,675 60 295 -64
2018-04-21 19:48:21 GMT 4.729889 -74.531158 12,675 60 293 0
2018-04-21 19:48:12 GMT 4.723609 -74.542282 12,675 60 292 -64
2018-04-21 19:48:00 GMT 4.716660 -74.554619 12,675 60 293 0
2018-04-21 19:47:49 GMT 4.708899 -74.568375 12,675 60 294 0
2018-04-21 19:47:40 GMT 4.701736 -74.580917 12,675 60 292 0
2018-04-21 19:47:31 GMT 4.695585 -74.591820 12,675 60 292 -64
2018-04-21 19:47:28 GMT 4.694916 -74.592979 12,675 60 292 -64
2018-04-21 19:47:18 GMT 4.687578 -74.605972 12,675 60 292 0
2018-04-21 19:47:08 GMT 4.680771 -74.618027 12,675 60 293 0
2018-04-21 19:46:57 GMT 4.673146 -74.631546 12,675 60 292 0
2018-04-21 19:46:46 GMT 4.666672 -74.642883 12,675 60 292 0
2018-04-21 19:46:34 GMT 4.656921 -74.660156 12,675 60 295 -64
2018-04-21 19:46:24 GMT 4.651546 -74.669670 12,675 60 295 -128
2018-04-21 19:46:19 GMT 4.648453 -74.675140 12,700 60 295 -64
2018-04-21 19:46:10 GMT 4.640533 -74.689247 12,725 60 296 -256
2018-04-21 19:46:00 GMT 4.635672 -74.697891 12,750 60 296 -256
2018-04-21 19:45:52 GMT 4.629853 -74.708214 12,775 60 297 -320
2018-04-21 19:45:49 GMT 4.627292 -74.712761 12,800 60 296 -320
2018-04-21 19:45:39 GMT 4.620822 -74.724220 12,850 60 295 -256
2018-04-21 19:45:29 GMT 4.615003 -74.734543 12,875 60 296 -320
2018-04-21 19:45:20 GMT 4.607973 -74.747002 12,950 60 297 -256
2018-04-21 19:45:06 GMT 4.597918 -74.764755 13,000 60 297 0
2018-04-21 19:44:58 GMT 4.593309 -74.772949 13,000 60 297 0
2018-04-21 19:44:55 GMT 4.590889 -74.777260 13,000 60 297 0
2018-04-21 19:44:48 GMT 4.586373 -74.785164 13,000 60 297 0
2018-04-21 19:44:41 GMT 4.581066 -74.794540 13,000 60 297 0
2018-04-21 19:44:37 GMT 4.578918 -74.798416 13,000 60 297 0
2018-04-21 19:44:34 GMT 4.576584 -74.802460 13,000 60 298 0
2018-04-21 19:44:25 GMT 4.571411 -74.811630 13,000 60 298 0
2018-04-21 19:44:14 GMT 4.562957 -74.826599 13,000 60 299 0
2018-04-21 19:44:01 GMT 4.554531 -74.841568 13,000 60 297 -64
2018-04-21 19:43:52 GMT 4.548200 -74.852882 13,000 60 296 -64
2018-04-21 19:43:44 GMT 4.542521 -74.862968 13,000 60 296 0
2018-04-21 19:43:33 GMT 4.535957 -74.874664 13,000 60 295 0
2018-04-21 19:43:21 GMT 4.528152 -74.888489 13,000 60 295 0
2018-04-21 19:43:11 GMT 4.521107 -74.900856 13,000 60 294 0
2018-04-21 19:43:01 GMT 4.513916 -74.913399 13,000 60 295 -64
2018-04-21 19:42:48 GMT 4.505838 -74.927422 13,000 60 296 -64
2018-04-21 19:42:40 GMT 4.499367 -74.938599 13,025 60 298 -64
2018-04-21 19:42:28 GMT 4.491406 -74.952332 13,025 60 303 -64
2018-04-21 19:42:18 GMT 4.484619 -74.964096 13,025 60 309 0
2018-04-21 19:42:08 GMT 4.476242 -74.978661 13,025 60 320 0
2018-04-21 19:41:57 GMT 4.469009 -74.991508 13,025 60 333 64
2018-04-21 19:41:46 GMT 4.459891 -75.006409 13,000 52 352 -320
2018-04-21 19:41:33 GMT 4.446030 -75.022331 12,975 43 368 -448
2018-04-21 19:41:24 GMT 4.433356 -75.032593 12,975 34 384 -832
2018-04-21 19:41:13 GMT 4.417328 -75.041695 13,075 23 397 -1920
2018-04-21 19:41:04 GMT 4.400299 -75.047791 13,350 13 398 -2880
2018-04-21 19:40:52 GMT 4.379471 -75.051003 13,825 0 400 -3840
2018-04-21 19:40:42 GMT 4.361252 -75.050308 14,425 350 400 -5120
2018-04-21 19:40:32 GMT 4.340717 -75.045189 15,350 339 395 -6528
2018-04-21 19:40:19 GMT 4.322937 -75.036575 16,425 329 394 -4800
2018-04-21 19:40:09 GMT 4.306035 -75.024834 17,175 319 399 -4224
2018-04-21 19:39:59 GMT 4.293234 -75.012947 17,850 313 402 -4160
2018-04-21 19:39:48 GMT 4.279678 -74.995705 18,650 301 403 -4224
2018-04-21 19:39:37 GMT 4.271401 -74.977898 19,400 287 402 -3968
2018-04-21 19:39:24 GMT 4.266861 -74.955154 20,250 274 401 -3520
2018-04-21 19:39:16 GMT 4.267685 -74.936768 20,850 262 402 -2240
2018-04-21 19:39:04 GMT 4.271820 -74.919510 21,275 250 401 -2240
2018-04-21 19:38:54 GMT 4.280273 -74.901245 21,725 243 393 -1792
2018-04-21 19:38:44 GMT 4.288997 -74.884377 21,950 243 394 -384
2018-04-21 19:38:32 GMT 4.298541 -74.865906 22,000 243 394 0
2018-04-21 19:38:22 GMT 4.306780 -74.849998 22,000 243 394 0
2018-04-21 19:38:12 GMT 4.315811 -74.832474 22,000 243 393 0
2018-04-21 19:38:01 GMT 4.324173 -74.816292 22,000 243 393 0
2018-04-21 19:37:50 GMT 4.333548 -74.798141 22,000 243 394 64
2018-04-21 19:37:40 GMT 4.343277 -74.779297 21,975 243 394 256
2018-04-21 19:37:28 GMT 4.351470 -74.763382 21,925 243 394 832
2018-04-21 19:37:18 GMT 4.360502 -74.745865 21,775 243 392 1536
2018-04-21 19:37:08 GMT 4.369400 -74.728447 21,525 243 387 1216
2018-04-21 19:36:56 GMT 4.378285 -74.711243 21,325 243 384 1472
2018-04-21 19:36:47 GMT 4.386571 -74.695145 21,075 243 381 1728
2018-04-21 19:36:36 GMT 4.395493 -74.677841 20,500 243 372 2432
2018-04-21 19:36:25 GMT 4.403469 -74.662277 20,500 243 372 2432
2018-04-21 19:36:14 GMT 4.412500 -74.644669 19,950 243 372 2432
2018-04-21 19:36:04 GMT 4.421173 -74.627708 19,950 243 372 2432
2018-04-21 19:35:52 GMT 4.429184 -74.612015 19,550 244 374 2176
2018-04-21 19:35:42 GMT 4.437918 -74.594994 19,150 243 376 2688
2018-04-21 19:35:32 GMT 4.445847 -74.579430 18,400 243 375 1664
2018-04-21 19:35:20 GMT 4.454956 -74.561691 18,400 243 375 1664
2018-04-21 19:35:09 GMT 4.463333 -74.545357 18,100 243 372 2176
2018-04-21 19:35:00 GMT 4.471573 -74.529343 17,775 243 372 1600
2018-04-21 19:34:48 GMT 4.479584 -74.513748 17,475 243 369 1920
2018-04-21 19:34:37 GMT 4.488939 -74.495544 17,150 243 367 1856
2018-04-21 19:34:28 GMT 4.496796 -74.480133 16,850 244 363 1984
2018-04-21 19:34:16 GMT 4.504578 -74.464821 16,500 244 362 1792
2018-04-21 19:34:06 GMT 4.512772 -74.448715 16,275 244 356 960
2018-04-21 19:33:56 GMT 4.520502 -74.433510 16,100 244 349 1088
2018-04-21 19:33:45 GMT 4.528741 -74.417175 15,900 244 341 1408
2018-04-21 19:33:33 GMT 4.535843 -74.403137 15,625 244 337 2624
2018-04-21 19:33:24 GMT 4.543685 -74.387856 15,200 243 338 2368
2018-04-21 19:33:17 GMT 4.548477 -74.378654 14,975 243 336 1920
2018-04-21 19:33:13 GMT 4.550761 -74.374222 14,850 243 335 1856
2018-04-21 19:33:09 GMT 4.554749 -74.366501 14,700 244 333 2496
2018-04-21 19:33:01 GMT 4.559235 -74.357704 14,475 243 332 2624
2018-04-21 19:32:54 GMT 4.565048 -74.346481 14,150 243 333 2432
2018-04-21 19:32:51 GMT 4.566879 -74.342903 14,050 243 331 2176
2018-04-21 19:32:45 GMT 4.570731 -74.335579 13,850 243 329 2112
2018-04-21 19:32:41 GMT 4.573990 -74.329330 13,700 243 327 1856
2018-04-21 19:32:34 GMT 4.578461 -74.320740 13,525 243 324 1984
2018-04-21 19:32:29 GMT 4.581665 -74.314598 13,375 243 322 2304
2018-04-21 19:32:24 GMT 4.585373 -74.307426 13,150 243 322 2432
2018-04-21 19:32:20 GMT 4.588561 -74.301338 12,950 243 319 1856
2018-04-21 19:32:15 GMT 4.592239 -74.294250 12,825 243 318 1792
2018-04-21 19:32:08 GMT 4.596521 -74.285858 12,650 244 314 1280
2018-04-21 19:31:57 GMT 4.602759 -74.272507 12,425 249 303 1024
2018-04-21 19:31:48 GMT 4.608066 -74.258301 12,250 251 295 1088
2018-04-21 19:31:42 GMT 4.610687 -74.251144 12,150 250 289 1152
2018-04-21 19:31:36 GMT 4.612442 -74.246361 12,050 250 285 960
2018-04-21 19:31:25 GMT 4.617920 -74.231689 11,925 250 272 768
2018-04-21 19:31:20 GMT 4.620621 -74.224380 11,850 250 266 640
2018-04-21 19:31:16 GMT 4.622543 -74.219070 11,800 251 258 896
2018-04-21 19:31:10 GMT 4.624191 -74.214600 11,725 250 253 1216
2018-04-21 19:31:04 GMT 4.626641 -74.208008 11,625 250 247 1088
2018-04-21 19:30:59 GMT 4.628922 -74.201805 11,525 250 243 1024
2018-04-21 19:30:53 GMT 4.631063 -74.196121 11,450 250 236 832
2018-04-21 19:30:44 GMT 4.634648 -74.186554 11,300 250 228 768
2018-04-21 19:30:38 GMT 4.636597 -74.181221 11,075 252 214 832
2018-04-21 19:30:33 GMT 4.638657 -74.175591 11,150 251 219 960
2018-04-21 19:30:29 GMT 4.640442 -74.170425 11,075 252 214 832
2018-04-21 19:30:23 GMT 4.642227 -74.165161 11,000 252 210 832
2018-04-21 19:30:18 GMT 4.643586 -74.161125 10,925 253 204 896
2018-04-21 19:30:10 GMT 4.646053 -74.153595 10,800 253 199 1920
2018-04-21 19:30:05 GMT 4.647217 -74.149902 10,700 252 199 1920
2018-04-21 19:30:00 GMT 4.649079 -74.144264 10,500 251 200 1856
2018-04-21 19:29:55 GMT 4.650382 -74.140617 10,400 249 201 2112
2018-04-21 19:29:51 GMT 4.651886 -74.137230 10,275 240 201 2432
2018-04-21 19:29:46 GMT 4.654449 -74.133461 10,150 225 198 2368
2018-04-21 19:29:40 GMT 4.658615 -74.129784 10,025 209 195 2496
2018-04-21 19:29:34 GMT 4.662346 -74.127930 9,850 194 193 1920
2018-04-21 19:29:29 GMT 4.666901 -74.126945 9,750 181 191 1728
2018-04-21 19:29:22 GMT 4.675232 -74.127968 9,550 153 185 1088
2018-04-21 19:29:18 GMT 4.676312 -74.128494 9,525 148 183 768
2018-04-21 19:29:14 GMT 4.680405 -74.130943 9,450 139 180 960
2018-04-21 19:29:08 GMT 4.683334 -74.133644 9,350 129 176 2240
2018-04-21 19:29:02 GMT 4.686218 -74.137184 9,150 128 177 3200
2018-04-21 19:28:56 GMT 4.689377 -74.141235 8,875 127 178 3136
2018-04-21 19:28:44 GMT 4.694870 -74.148544 8,325 126 181 2624
2018-04-21 19:28:36 GMT 4.699917 -74.155167 0 126 165
2018-04-21 19:28:23 GMT 4.704494 -74.161209 0 126 130
2018-04-21 19:28:14 GMT 4.707677 -74.165413 0 126 88
2018-04-21 19:28:04 GMT 4.709644 -74.167999 0 123 34
2018-04-21 19:27:52 GMT 4.710109 -74.168617 0 129 9
2018-04-21 19:27:42 GMT 4.710262 -74.168922 0 157 7
2018-04-21 19:27:32 GMT 4.710633 -74.168892 0 199 14
2018-04-21 19:27:20 GMT 4.711180 -74.168587 0 216 10
2018-04-21 19:27:02 GMT 4.711471 -74.168373 0 216 0
2018-04-21 19:26:53 GMT 4.711471 -74.168358 0 216 0
2018-04-21 19:26:12 GMT 4.711475 -74.168365 0 216 0
2018-04-21 19:25:56 GMT 4.711471 -74.168358 0 216 0
2018-04-21 19:25:44 GMT 4.711482 -74.168358 0 216 0
2018-04-21 19:25:38 GMT 4.711692 -74.168205 0 213 15
2018-04-21 19:25:33 GMT 4.711901 -74.168060 0 230 13
2018-04-21 19:25:24 GMT 4.711967 -74.167503 0 309 16
2018-04-21 19:25:13 GMT 4.711436 -74.166794 0 306 20
2018-04-21 19:25:02 GMT 4.710842 -74.166000 0 306 18
2018-04-21 19:24:51 GMT 4.710283 -74.165268 0 306 17
2018-04-21 19:24:41 GMT 4.709862 -74.164711 0 306 15
2018-04-21 19:24:29 GMT 4.709438 -74.164139 0 306 13
2018-04-21 19:24:18 GMT 4.709096 -74.163704 0 306 11
2018-04-21 19:24:09 GMT 4.708817 -74.163322 0 309 12
2018-04-21 19:23:56 GMT 4.708260 -74.162590 0 306 19
2018-04-21 19:23:47 GMT 4.707793 -74.161987 0 306 18
2018-04-21 19:23:36 GMT 4.707269 -74.161278 0 306 17
2018-04-21 19:23:24 GMT 4.706738 -74.160599 0 306 16
2018-04-21 19:23:12 GMT 4.706280 -74.159981 0 306 13
2018-04-21 19:23:05 GMT 4.705982 -74.159592 0 306 11
2018-04-21 19:22:52 GMT 4.705673 -74.159180 0 306 9
2018-04-21 19:22:42 GMT 4.705454 -74.158890 0 306 8
2018-04-21 19:22:32 GMT 4.705000 -74.158295 0 306 24
2018-04-21 19:22:20 GMT 4.704357 -74.157448 0 306 23
2018-04-21 19:22:10 GMT 4.703671 -74.156540 0 306 21
2018-04-21 19:22:00 GMT 4.703121 -74.155807 0 306 20
2018-04-21 19:21:48 GMT 4.702503 -74.154991 0 306 19
2018-04-21 19:21:38 GMT 4.701974 -74.154282 0 306 18
2018-04-21 19:21:28 GMT 4.701485 -74.153641 0 306 17
2018-04-21 19:21:17 GMT 4.700950 -74.152931 0 306 17
2018-04-21 19:21:03 GMT 4.700375 -74.152176 0 306 16
2018-04-21 19:20:54 GMT 4.699986 -74.151665 0 306 15
2018-04-21 19:20:45 GMT 4.699608 -74.151154 0 309 15
2018-04-21 19:20:34 GMT 4.699150 -74.150566 0 306 14
2018-04-21 19:20:22 GMT 4.698762 -74.150055 0 306 14
2018-04-21 19:20:13 GMT 4.698529 -74.149460 0 241 16
2018-04-21 19:20:02 GMT 4.698995 -74.149002 0 216 12
2018-04-21 19:19:50 GMT 4.699425 -74.148621 0 267 11
2018-04-21 19:19:39 GMT 4.699219 -74.148125 0 306 7
2018-04-21 19:19:30 GMT 4.699127 -74.147995 0 306 3
2018-04-21 19:19:18 GMT 4.699099 -74.147972 0 306 0
2018-04-21 19:18:24 GMT 4.699104 -74.147972 0 306 0
2018-04-21 19:18:15 GMT 4.699076 -74.147934 0 306 8
2018-04-21 19:18:04 GMT 4.698797 -74.147545 0 320 9
2018-04-21 19:17:52 GMT 4.698441 -74.147415 0 28 8
2018-04-21 19:17:43 GMT 4.698269 -74.147530 0 36 3
2018-04-21 19:17:27 GMT 4.698180 -74.147606 0 36 0
2018-04-21 19:16:58 GMT 4.698168 -74.147606 0 36 0
2018-04-21 19:16:47 GMT 4.698177 -74.147614 0 36 0
2018-04-21 19:16:26 GMT 4.698168 -74.147606 0 36 0
2018-04-21 19:15:32 GMT 4.698177 -74.147614 0 36 0
2018-04-21 19:14:38 GMT 4.698168 -74.147606 0 36 0
2018-04-21 19:14:08 GMT 4.698177 -74.147614 0 36 0
2018-04-21 19:13:53 GMT 4.698168 -74.147606 0 36 0
2018-04-21 19:13:42 GMT 4.698168 -74.147614 0 36 0
2018-04-21 19:13:36 GMT 4.698145 -74.147636 0 33 1
2018-04-21 19:13:24 GMT 4.698086 -74.147675 0 33 2
2018-04-21 19:13:15 GMT 4.698097 -74.147659 0 33 2
2018-04-21 19:13:03 GMT 4.698203 -74.147614 0 30 3
2018-04-21 19:12:53 GMT 4.698280 -74.147568 0 30 3
2018-04-21 19:12:43 GMT 4.698395 -74.147522 0 25 3
2018-04-21 19:12:31 GMT 4.698448 -74.147430 0 39 3
2018-04-21 19:12:19 GMT 4.698463 -74.147285 0 61 2
2018-04-21 19:12:11 GMT 4.698429 -74.147156 0 84 4
2018-04-21 19:11:59 GMT 4.698354 -74.147003 0 104 4
2018-04-21 19:11:48 GMT 4.698257 -74.146866 0 115 4
2018-04-21 19:11:39 GMT 4.698143 -74.146744 0 126 4
2018-04-21 19:11:26 GMT 4.698029 -74.146622 0 129 4
2018-04-21 19:11:17 GMT 4.697937 -74.146500 0 129 3
2018-04-21 19:11:05 GMT 4.697866 -74.146362 0 123 4
2018-04-21 19:10:55 GMT 4.697796 -74.146255 0 123 3
2018-04-21 19:10:45 GMT 4.697731 -74.146149 0 123 3
2018-04-21 19:10:33 GMT 4.697651 -74.146042 0 123 3
2018-04-21 19:10:22 GMT 4.697571 -74.145935 0 126 3
2018-04-21 19:10:13 GMT 4.697491 -74.145859 0 129 3
2018-04-21 19:10:01 GMT 4.697400 -74.145760 0 129 3
2018-04-21 19:09:52 GMT 4.697330 -74.145660 0 129 3
2018-04-21 19:09:41 GMT 4.697226 -74.145508 0 126 4
2018-04-21 19:09:30 GMT 4.697144 -74.145416 0 126 4
2018-04-21 19:09:13 GMT 4.696999 -74.145226 0 126 3
2018-04-21 19:09:01 GMT 4.696884 -74.145088 0 129 3
2018-04-21 19:08:56 GMT 4.696853 -74.145058 0 129 3
2018-04-21 19:08:47 GMT 4.696770 -74.144958 0 129 3
2018-04-21 19:08:37 GMT 4.696667 -74.144844 0 129 4
2018-04-21 19:08:25 GMT 4.696574 -74.144730 0 129 4
2018-04-21 19:08:05 GMT 4.696518 -74.144539 0 112 2

Making use of Plane Finder data

You are free to use the raw flight data, aircraft information and images provided in this report for your own purposes provided the data is correctly attributed to Plane Finder. We ask that you please credit Plane Finder and link to planefinder.net in close proximity to the content.

Optionally one of the following logos (no smaller then 150x24px) can be used and must link to planefinder.net

Embedding the Plane Finder map

You are welcome to embed the Plane Finder playback map on your website to offer visitors a more interactive experience. We suggest using the following HTML code:

<iframe src="//planefinder.net/data/report/AV9205-N725AV-7700-squawk-2018-04-21/map" width="800" height="600" seamless="seamless"></iframe>

Where our data comes from

Plane Finder has a global network of data feeds and antenna radars that receive data broadcast directly from aircraft. The primary technologies used are ADS-B and MLAT. We also show feeds from the FAA and a FLARM glider feed.

Click here to find out more about the Plane Finder network.

How we collect our data